sensor_id;sensor_type;location;lat;lon;timestamp;temperature;humidity
20057;DHT22;10189;49.546;7.906;2022-09-01T00:01:48;15.30;70.30
20057;DHT22;10189;49.546;7.906;2022-09-01T00:04:21;15.20;70.10
20057;DHT22;10189;49.546;7.906;2022-09-01T00:06:52;15.20;70.30
20057;DHT22;10189;49.546;7.906;2022-09-01T00:09:21;15.20;70.30
20057;DHT22;10189;49.546;7.906;2022-09-01T00:11:50;15.20;70.50
20057;DHT22;10189;49.546;7.906;2022-09-01T00:14:20;15.20;70.30
20057;DHT22;10189;49.546;7.906;2022-09-01T00:16:49;15.10;70.60
20057;DHT22;10189;49.546;7.906;2022-09-01T00:19:15;15.10;70.60
20057;DHT22;10189;49.546;7.906;2022-09-01T00:21:43;15.00;70.80
20057;DHT22;10189;49.546;7.906;2022-09-01T00:24:10;15.00;70.90
20057;DHT22;10189;49.546;7.906;2022-09-01T00:26:38;15.00;71.10
20057;DHT22;10189;49.546;7.906;2022-09-01T00:29:04;15.00;71.00
20057;DHT22;10189;49.546;7.906;2022-09-01T00:31:31;15.00;71.10
20057;DHT22;10189;49.546;7.906;2022-09-01T00:33:57;14.90;71.60
20057;DHT22;10189;49.546;7.906;2022-09-01T00:36:24;14.90;71.70
20057;DHT22;10189;49.546;7.906;2022-09-01T00:38:50;14.80;72.00
20057;DHT22;10189;49.546;7.906;2022-09-01T00:41:19;14.70;72.30
20057;DHT22;10189;49.546;7.906;2022-09-01T00:43:50;14.60;72.80
20057;DHT22;10189;49.546;7.906;2022-09-01T00:46:28;14.60;72.90
20057;DHT22;10189;49.546;7.906;2022-09-01T00:49:16;14.50;73.20
20057;DHT22;10189;49.546;7.906;2022-09-01T00:51:54;14.50;73.40
20057;DHT22;10189;49.546;7.906;2022-09-01T00:54:28;14.50;73.30
20057;DHT22;10189;49.546;7.906;2022-09-01T00:56:59;14.50;73.30
20057;DHT22;10189;49.546;7.906;2022-09-01T00:59:28;14.50;73.40
20057;DHT22;10189;49.546;7.906;2022-09-01T01:01:55;14.50;73.40
20057;DHT22;10189;49.546;7.906;2022-09-01T01:04:25;14.40;73.80
20057;DHT22;10189;49.546;7.906;2022-09-01T01:06:55;14.30;74.10
20057;DHT22;10189;49.546;7.906;2022-09-01T01:09:29;14.30;74.30
20057;DHT22;10189;49.546;7.906;2022-09-01T01:12:02;14.30;74.10
20057;DHT22;10189;49.546;7.906;2022-09-01T01:14:33;14.40;74.00
20057;DHT22;10189;49.546;7.906;2022-09-01T01:17:02;14.40;73.70
20057;DHT22;10189;49.546;7.906;2022-09-01T01:19:45;14.30;74.00
20057;DHT22;10189;49.546;7.906;2022-09-01T01:26:07;14.40;73.70
20057;DHT22;10189;49.546;7.906;2022-09-01T01:28:38;14.40;73.60
20057;DHT22;10189;49.546;7.906;2022-09-01T01:31:10;14.40;73.40
20057;DHT22;10189;49.546;7.906;2022-09-01T01:36:24;14.30;74.20
20057;DHT22;10189;49.546;7.906;2022-09-01T01:39:01;14.20;74.10
20057;DHT22;10189;49.546;7.906;2022-09-01T01:41:35;14.20;74.10
20057;DHT22;10189;49.546;7.906;2022-09-01T01:44:05;14.20;74.10
20057;DHT22;10189;49.546;7.906;2022-09-01T01:46:34;14.20;74.10
20057;DHT22;10189;49.546;7.906;2022-09-01T01:49:01;14.20;73.90
20057;DHT22;10189;49.546;7.906;2022-09-01T01:51:29;14.30;73.60
20057;DHT22;10189;49.546;7.906;2022-09-01T01:53:58;14.20;73.80
20057;DHT22;10189;49.546;7.906;2022-09-01T01:56:32;14.20;73.60
20057;DHT22;10189;49.546;7.906;2022-09-01T01:59:00;14.20;73.60
20057;DHT22;10189;49.546;7.906;2022-09-01T02:01:28;14.20;73.70
20057;DHT22;10189;49.546;7.906;2022-09-01T02:03:59;14.20;73.50
20057;DHT22;10189;49.546;7.906;2022-09-01T02:06:27;14.20;73.50
20057;DHT22;10189;49.546;7.906;2022-09-01T02:08:56;14.10;73.70
20057;DHT22;10189;49.546;7.906;2022-09-01T02:11:24;14.20;73.60
20057;DHT22;10189;49.546;7.906;2022-09-01T02:13:53;14.10;73.70
20057;DHT22;10189;49.546;7.906;2022-09-01T02:16:25;14.10;73.60
20057;DHT22;10189;49.546;7.906;2022-09-01T02:18:53;14.10;73.60
20057;DHT22;10189;49.546;7.906;2022-09-01T02:21:23;14.10;73.80
20057;DHT22;10189;49.546;7.906;2022-09-01T02:24:01;14.00;74.30
20057;DHT22;10189;49.546;7.906;2022-09-01T02:26:35;14.10;74.00
20057;DHT22;10189;49.546;7.906;2022-09-01T02:29:09;14.00;74.10
20057;DHT22;10189;49.546;7.906;2022-09-01T02:31:43;14.00;74.20
20057;DHT22;10189;49.546;7.906;2022-09-01T02:34:11;13.90;74.50
20057;DHT22;10189;49.546;7.906;2022-09-01T02:36:41;13.90;74.50
20057;DHT22;10189;49.546;7.906;2022-09-01T02:39:20;13.80;74.70
20057;DHT22;10189;49.546;7.906;2022-09-01T02:41:51;13.80;74.80
20057;DHT22;10189;49.546;7.906;2022-09-01T02:44:23;13.80;74.90
20057;DHT22;10189;49.546;7.906;2022-09-01T02:46:49;13.80;74.80
20057;DHT22;10189;49.546;7.906;2022-09-01T02:49:22;13.80;74.70
20057;DHT22;10189;49.546;7.906;2022-09-01T02:51:56;13.80;74.70
20057;DHT22;10189;49.546;7.906;2022-09-01T02:54:26;13.70;74.80
20057;DHT22;10189;49.546;7.906;2022-09-01T02:56:55;13.70;75.10
20057;DHT22;10189;49.546;7.906;2022-09-01T02:59:26;13.60;74.90
20057;DHT22;10189;49.546;7.906;2022-09-01T03:01:57;13.70;74.90
20057;DHT22;10189;49.546;7.906;2022-09-01T03:04:24;13.60;74.90
20057;DHT22;10189;49.546;7.906;2022-09-01T03:06:51;13.60;75.10
20057;DHT22;10189;49.546;7.906;2022-09-01T03:09:20;13.60;74.90
20057;DHT22;10189;49.546;7.906;2022-09-01T03:11:50;13.60;74.80
20057;DHT22;10189;49.546;7.906;2022-09-01T03:14:18;13.60;75.00
20057;DHT22;10189;49.546;7.906;2022-09-01T03:16:45;13.50;75.00
20057;DHT22;10189;49.546;7.906;2022-09-01T03:19:11;13.50;75.00
20057;DHT22;10189;49.546;7.906;2022-09-01T03:21:42;13.50;74.70
20057;DHT22;10189;49.546;7.906;2022-09-01T03:24:12;13.50;74.80
20057;DHT22;10189;49.546;7.906;2022-09-01T03:26:44;13.50;74.90
20057;DHT22;10189;49.546;7.906;2022-09-01T03:29:11;13.60;74.60
20057;DHT22;10189;49.546;7.906;2022-09-01T03:31:37;13.60;74.20
20057;DHT22;10189;49.546;7.906;2022-09-01T03:34:04;13.60;74.20
20057;DHT22;10189;49.546;7.906;2022-09-01T03:36:35;13.70;74.00
20057;DHT22;10189;49.546;7.906;2022-09-01T03:39:01;13.60;74.10
20057;DHT22;10189;49.546;7.906;2022-09-01T03:41:29;13.60;74.20
20057;DHT22;10189;49.546;7.906;2022-09-01T03:43:57;13.60;74.00
20057;DHT22;10189;49.546;7.906;2022-09-01T03:46:27;13.60;74.00
20057;DHT22;10189;49.546;7.906;2022-09-01T03:48:57;13.60;74.10
20057;DHT22;10189;49.546;7.906;2022-09-01T03:51:28;13.60;74.10
20057;DHT22;10189;49.546;7.906;2022-09-01T03:53:56;13.70;73.90
20057;DHT22;10189;49.546;7.906;2022-09-01T03:56:25;13.70;73.80
20057;DHT22;10189;49.546;7.906;2022-09-01T03:58:54;13.70;73.70
20057;DHT22;10189;49.546;7.906;2022-09-01T04:01:22;13.70;73.70
20057;DHT22;10189;49.546;7.906;2022-09-01T04:03:50;13.60;73.90
20057;DHT22;10189;49.546;7.906;2022-09-01T04:06:21;13.60;73.90
20057;DHT22;10189;49.546;7.906;2022-09-01T04:08:49;13.60;74.10
20057;DHT22;10189;49.546;7.906;2022-09-01T04:11:22;13.60;74.10
20057;DHT22;10189;49.546;7.906;2022-09-01T04:13:50;13.50;74.10
20057;DHT22;10189;49.546;7.906;2022-09-01T04:16:29;13.50;74.20
20057;DHT22;10189;49.546;7.906;2022-09-01T04:19:21;13.50;74.20
20057;DHT22;10189;49.546;7.906;2022-09-01T04:22:00;13.60;74.10
20057;DHT22;10189;49.546;7.906;2022-09-01T04:24:32;13.50;74.10
20057;DHT22;10189;49.546;7.906;2022-09-01T04:27:01;13.50;74.20
20057;DHT22;10189;49.546;7.906;2022-09-01T04:29:29;13.50;74.40
20057;DHT22;10189;49.546;7.906;2022-09-01T04:32:02;13.50;74.50
20057;DHT22;10189;49.546;7.906;2022-09-01T04:34:34;13.40;74.80
20057;DHT22;10189;49.546;7.906;2022-09-01T04:37:08;13.40;74.90
20057;DHT22;10189;49.546;7.906;2022-09-01T04:39:38;13.40;74.70
20057;DHT22;10189;49.546;7.906;2022-09-01T04:42:05;13.30;75.10
20057;DHT22;10189;49.546;7.906;2022-09-01T04:44:33;13.40;74.90
20057;DHT22;10189;49.546;7.906;2022-09-01T04:47:00;13.40;74.90
20057;DHT22;10189;49.546;7.906;2022-09-01T04:49:26;13.40;75.00
20057;DHT22;10189;49.546;7.906;2022-09-01T04:51:54;13.40;74.80
20057;DHT22;10189;49.546;7.906;2022-09-01T04:54:22;13.50;74.60
20057;DHT22;10189;49.546;7.906;2022-09-01T04:56:49;13.50;74.50
20057;DHT22;10189;49.546;7.906;2022-09-01T04:59:19;13.60;74.40
20057;DHT22;10189;49.546;7.906;2022-09-01T05:01:52;13.50;74.20
20057;DHT22;10189;49.546;7.906;2022-09-01T05:04:24;13.50;74.40
20057;DHT22;10189;49.546;7.906;2022-09-01T05:06:55;13.50;74.50
20057;DHT22;10189;49.546;7.906;2022-09-01T05:09:35;13.50;74.60
20057;DHT22;10189;49.546;7.906;2022-09-01T05:12:18;13.40;74.70
20057;DHT22;10189;49.546;7.906;2022-09-01T05:14:46;13.40;74.80
20057;DHT22;10189;49.546;7.906;2022-09-01T05:17:15;13.50;74.80
20057;DHT22;10189;49.546;7.906;2022-09-01T05:19:45;13.40;74.80
20057;DHT22;10189;49.546;7.906;2022-09-01T05:22:14;13.40;74.80
20057;DHT22;10189;49.546;7.906;2022-09-01T05:24:53;13.50;74.80
20057;DHT22;10189;49.546;7.906;2022-09-01T05:27:19;13.50;75.00
20057;DHT22;10189;49.546;7.906;2022-09-01T05:29:45;13.50;74.80
20057;DHT22;10189;49.546;7.906;2022-09-01T05:32:12;13.50;74.90
20057;DHT22;10189;49.546;7.906;2022-09-01T05:34:39;13.50;75.00
20057;DHT22;10189;49.546;7.906;2022-09-01T05:37:08;13.60;74.70
20057;DHT22;10189;49.546;7.906;2022-09-01T05:39:37;13.70;74.20
20057;DHT22;10189;49.546;7.906;2022-09-01T05:42:07;13.80;73.90
20057;DHT22;10189;49.546;7.906;2022-09-01T05:44:35;13.80;74.00
20057;DHT22;10189;49.546;7.906;2022-09-01T05:47:06;13.90;73.60
20057;DHT22;10189;49.546;7.906;2022-09-01T05:49:33;13.90;73.90
20057;DHT22;10189;49.546;7.906;2022-09-01T05:52:02;14.00;73.40
20057;DHT22;10189;49.546;7.906;2022-09-01T05:54:30;14.10;72.80
20057;DHT22;10189;49.546;7.906;2022-09-01T05:56:57;14.20;73.10
20057;DHT22;10189;49.546;7.906;2022-09-01T05:59:27;14.20;73.00
20057;DHT22;10189;49.546;7.906;2022-09-01T06:02:22;14.10;73.10
20057;DHT22;10189;49.546;7.906;2022-09-01T06:04:48;14.10;73.30
20057;DHT22;10189;49.546;7.906;2022-09-01T06:07:21;14.00;73.90
20057;DHT22;10189;49.546;7.906;2022-09-01T06:09:51;14.00;74.10
20057;DHT22;10189;49.546;7.906;2022-09-01T06:12:20;14.00;74.30
20057;DHT22;10189;49.546;7.906;2022-09-01T06:14:50;14.10;73.70
20057;DHT22;10189;49.546;7.906;2022-09-01T06:17:20;14.00;74.10
20057;DHT22;10189;49.546;7.906;2022-09-01T06:19:53;14.00;74.30
20057;DHT22;10189;49.546;7.906;2022-09-01T06:22:21;14.10;73.70
20057;DHT22;10189;49.546;7.906;2022-09-01T06:24:49;14.00;73.70
20057;DHT22;10189;49.546;7.906;2022-09-01T06:27:19;14.10;74.00
20057;DHT22;10189;49.546;7.906;2022-09-01T06:29:46;14.30;72.90
20057;DHT22;10189;49.546;7.906;2022-09-01T06:32:18;14.40;72.80
20057;DHT22;10189;49.546;7.906;2022-09-01T06:34:45;14.40;73.20
20057;DHT22;10189;49.546;7.906;2022-09-01T06:37:14;14.40;72.80
20057;DHT22;10189;49.546;7.906;2022-09-01T06:39:44;14.40;72.70
20057;DHT22;10189;49.546;7.906;2022-09-01T06:42:10;14.40;73.10
20057;DHT22;10189;49.546;7.906;2022-09-01T06:44:53;14.50;73.20
20057;DHT22;10189;49.546;7.906;2022-09-01T06:47:20;14.80;72.50
20057;DHT22;10189;49.546;7.906;2022-09-01T06:49:46;15.00;71.70
20057;DHT22;10189;49.546;7.906;2022-09-01T06:52:19;15.20;71.10
20057;DHT22;10189;49.546;7.906;2022-09-01T06:54:48;15.40;70.30
20057;DHT22;10189;49.546;7.906;2022-09-01T06:57:18;15.50;69.50
20057;DHT22;10189;49.546;7.906;2022-09-01T06:59:46;15.60;69.30
20057;DHT22;10189;49.546;7.906;2022-09-01T07:02:14;15.60;69.90
20057;DHT22;10189;49.546;7.906;2022-09-01T07:05:01;15.60;69.50
20057;DHT22;10189;49.546;7.906;2022-09-01T07:07:28;15.60;70.40
20057;DHT22;10189;49.546;7.906;2022-09-01T07:10:17;15.70;70.00
20057;DHT22;10189;49.546;7.906;2022-09-01T07:12:53;15.80;69.70
20057;DHT22;10189;49.546;7.906;2022-09-01T07:15:22;15.90;70.00
20057;DHT22;10189;49.546;7.906;2022-09-01T07:17:51;16.00;69.10
20057;DHT22;10189;49.546;7.906;2022-09-01T07:20:26;16.00;69.30
20057;DHT22;10189;49.546;7.906;2022-09-01T07:22:56;15.90;69.40
20057;DHT22;10189;49.546;7.906;2022-09-01T07:25:22;16.00;69.60
20057;DHT22;10189;49.546;7.906;2022-09-01T07:28:06;16.10;68.80
20057;DHT22;10189;49.546;7.906;2022-09-01T07:30:43;16.40;69.70
20057;DHT22;10189;49.546;7.906;2022-09-01T07:33:15;16.40;68.10
20057;DHT22;10189;49.546;7.906;2022-09-01T07:35:45;16.40;68.20
20057;DHT22;10189;49.546;7.906;2022-09-01T07:38:12;16.30;68.30
20057;DHT22;10189;49.546;7.906;2022-09-01T07:40:41;16.20;69.00
20057;DHT22;10189;49.546;7.906;2022-09-01T07:43:27;16.20;69.10
20057;DHT22;10189;49.546;7.906;2022-09-01T07:46:12;16.30;69.60
20057;DHT22;10189;49.546;7.906;2022-09-01T07:48:38;16.50;68.60
20057;DHT22;10189;49.546;7.906;2022-09-01T07:51:04;16.60;68.20
20057;DHT22;10189;49.546;7.906;2022-09-01T07:53:33;16.70;67.70
20057;DHT22;10189;49.546;7.906;2022-09-01T07:56:07;16.80;68.00
20057;DHT22;10189;49.546;7.906;2022-09-01T07:58:39;17.00;67.30
20057;DHT22;10189;49.546;7.906;2022-09-01T08:01:10;17.20;66.60
20057;DHT22;10189;49.546;7.906;2022-09-01T08:03:40;17.20;66.80
20057;DHT22;10189;49.546;7.906;2022-09-01T08:06:09;17.30;66.80
20057;DHT22;10189;49.546;7.906;2022-09-01T08:08:38;17.30;66.30
20057;DHT22;10189;49.546;7.906;2022-09-01T08:11:06;17.40;66.20
20057;DHT22;10189;49.546;7.906;2022-09-01T08:13:36;17.40;66.30
20057;DHT22;10189;49.546;7.906;2022-09-01T08:16:05;17.50;65.50
20057;DHT22;10189;49.546;7.906;2022-09-01T08:18:32;17.60;65.80
20057;DHT22;10189;49.546;7.906;2022-09-01T08:20:59;17.80;64.80
20057;DHT22;10189;49.546;7.906;2022-09-01T08:23:51;17.90;64.60
20057;DHT22;10189;49.546;7.906;2022-09-01T08:26:22;18.00;65.20
20057;DHT22;10189;49.546;7.906;2022-09-01T08:28:50;18.20;63.70
20057;DHT22;10189;49.546;7.906;2022-09-01T08:31:22;18.50;63.80
20057;DHT22;10189;49.546;7.906;2022-09-01T08:33:49;18.70;62.20
20057;DHT22;10189;49.546;7.906;2022-09-01T08:36:17;18.90;62.20
20057;DHT22;10189;49.546;7.906;2022-09-01T08:38:44;18.80;62.30
20057;DHT22;10189;49.546;7.906;2022-09-01T08:47:02;19.10;62.00
20057;DHT22;10189;49.546;7.906;2022-09-01T08:49:33;19.10;62.40
20057;DHT22;10189;49.546;7.906;2022-09-01T08:52:13;19.10;62.10
20057;DHT22;10189;49.546;7.906;2022-09-01T08:54:57;19.30;61.60
20057;DHT22;10189;49.546;7.906;2022-09-01T08:57:35;19.30;61.90
20057;DHT22;10189;49.546;7.906;2022-09-01T09:00:24;19.50;61.90
20057;DHT22;10189;49.546;7.906;2022-09-01T09:06:25;19.00;63.50
20057;DHT22;10189;49.546;7.906;2022-09-01T09:09:11;19.10;63.40
20057;DHT22;10189;49.546;7.906;2022-09-01T09:17:01;19.40;62.20
20057;DHT22;10189;49.546;7.906;2022-09-01T09:22:00;19.10;63.00
20057;DHT22;10189;49.546;7.906;2022-09-01T09:29:52;18.80;64.10
20057;DHT22;10189;49.546;7.906;2022-09-01T09:35:28;19.10;64.10
20057;DHT22;10189;49.546;7.906;2022-09-01T09:43:47;20.10;61.30
20057;DHT22;10189;49.546;7.906;2022-09-01T09:46:33;20.20;60.60
20057;DHT22;10189;49.546;7.906;2022-09-01T09:49:16;20.40;60.60
20057;DHT22;10189;49.546;7.906;2022-09-01T09:54:36;20.60;60.20
20057;DHT22;10189;49.546;7.906;2022-09-01T09:57:12;20.60;59.30
20057;DHT22;10189;49.546;7.906;2022-09-01T09:59:46;20.90;59.00
20057;DHT22;10189;49.546;7.906;2022-09-01T10:02:44;21.10;58.70
20057;DHT22;10189;49.546;7.906;2022-09-01T10:07:57;20.90;58.40
20057;DHT22;10189;49.546;7.906;2022-09-01T10:10:40;21.40;58.30
20057;DHT22;10189;49.546;7.906;2022-09-01T10:13:21;21.60;57.30
20057;DHT22;10189;49.546;7.906;2022-09-01T10:15:53;21.80;55.90
20057;DHT22;10189;49.546;7.906;2022-09-01T10:18:35;21.80;56.10
20057;DHT22;10189;49.546;7.906;2022-09-01T10:21:12;21.80;55.70
20057;DHT22;10189;49.546;7.906;2022-09-01T10:23:42;21.50;56.50
20057;DHT22;10189;49.546;7.906;2022-09-01T10:26:16;21.80;56.90
20057;DHT22;10189;49.546;7.906;2022-09-01T10:31:40;21.60;56.90
20057;DHT22;10189;49.546;7.906;2022-09-01T10:34:12;21.60;55.50
20057;DHT22;10189;49.546;7.906;2022-09-01T10:36:44;21.00;56.90
20057;DHT22;10189;49.546;7.906;2022-09-01T10:39:14;20.80;57.30
20057;DHT22;10189;49.546;7.906;2022-09-01T10:44:30;21.00;55.80
20057;DHT22;10189;49.546;7.906;2022-09-01T10:47:26;20.90;57.40
20057;DHT22;10189;49.546;7.906;2022-09-01T10:50:04;21.30;56.20
20057;DHT22;10189;49.546;7.906;2022-09-01T10:55:17;21.20;56.80
20057;DHT22;10189;49.546;7.906;2022-09-01T11:00:50;21.50;56.30
20057;DHT22;10189;49.546;7.906;2022-09-01T11:13:49;21.80;54.40
20057;DHT22;10189;49.546;7.906;2022-09-01T11:16:36;21.80;54.70
20057;DHT22;10189;49.546;7.906;2022-09-01T11:19:35;21.60;55.00
20057;DHT22;10189;49.546;7.906;2022-09-01T11:22:27;21.70;55.60
20057;DHT22;10189;49.546;7.906;2022-09-01T11:34:00;21.50;56.30
20057;DHT22;10189;49.546;7.906;2022-09-01T11:36:35;21.30;56.70
20057;DHT22;10189;49.546;7.906;2022-09-01T11:44:55;21.40;56.70
20057;DHT22;10189;49.546;7.906;2022-09-01T11:47:43;21.40;55.40
20057;DHT22;10189;49.546;7.906;2022-09-01T11:53:20;21.50;55.40
20057;DHT22;10189;49.546;7.906;2022-09-01T11:55:51;21.30;55.40
20057;DHT22;10189;49.546;7.906;2022-09-01T12:01:18;21.40;55.40
20057;DHT22;10189;49.546;7.906;2022-09-01T12:06:59;21.70;55.80
20057;DHT22;10189;49.546;7.906;2022-09-01T12:09:42;21.80;54.60
20057;DHT22;10189;49.546;7.906;2022-09-01T12:15:20;22.10;54.10
20057;DHT22;10189;49.546;7.906;2022-09-01T12:17:48;22.40;54.10
20057;DHT22;10189;49.546;7.906;2022-09-01T12:20:34;23.10;53.20
20057;DHT22;10189;49.546;7.906;2022-09-01T12:23:18;23.70;51.80
20057;DHT22;10189;49.546;7.906;2022-09-01T12:26:11;24.20;50.60
20057;DHT22;10189;49.546;7.906;2022-09-01T12:28:40;24.10;49.40
20057;DHT22;10189;49.546;7.906;2022-09-01T12:31:32;24.30;49.30
20057;DHT22;10189;49.546;7.906;2022-09-01T12:33:58;23.70;49.00
20057;DHT22;10189;49.546;7.906;2022-09-01T12:36:33;23.10;49.80
20057;DHT22;10189;49.546;7.906;2022-09-01T12:39:23;23.00;51.40
20057;DHT22;10189;49.546;7.906;2022-09-01T12:47:05;23.10;51.00
20057;DHT22;10189;49.546;7.906;2022-09-01T12:49:35;23.20;51.20
20057;DHT22;10189;49.546;7.906;2022-09-01T13:02:43;23.50;50.70
20057;DHT22;10189;49.546;7.906;2022-09-01T13:05:36;23.10;50.20
20057;DHT22;10189;49.546;7.906;2022-09-01T13:08:11;22.60;52.00
20057;DHT22;10189;49.546;7.906;2022-09-01T13:10:43;22.40;51.90
20057;DHT22;10189;49.546;7.906;2022-09-01T13:13:12;22.50;52.40
20057;DHT22;10189;49.546;7.906;2022-09-01T13:15:45;22.80;51.80
20057;DHT22;10189;49.546;7.906;2022-09-01T13:18:22;23.00;51.50
20057;DHT22;10189;49.546;7.906;2022-09-01T13:20:50;23.00;50.90
20057;DHT22;10189;49.546;7.906;2022-09-01T13:23:18;23.10;51.30
20057;DHT22;10189;49.546;7.906;2022-09-01T13:25:44;23.30;50.40
20057;DHT22;10189;49.546;7.906;2022-09-01T13:28:12;23.40;49.80
20057;DHT22;10189;49.546;7.906;2022-09-01T13:30:40;23.50;49.60
20057;DHT22;10189;49.546;7.906;2022-09-01T13:33:08;23.20;50.00
20057;DHT22;10189;49.546;7.906;2022-09-01T13:35:37;23.10;50.60
20057;DHT22;10189;49.546;7.906;2022-09-01T13:38:04;23.00;50.70
20057;DHT22;10189;49.546;7.906;2022-09-01T13:40:30;22.80;50.70
20057;DHT22;10189;49.546;7.906;2022-09-01T13:42:56;22.70;51.50
20057;DHT22;10189;49.546;7.906;2022-09-01T13:45:23;22.80;51.20
20057;DHT22;10189;49.546;7.906;2022-09-01T13:47:51;22.80;50.20
20057;DHT22;10189;49.546;7.906;2022-09-01T13:50:20;23.00;50.80
20057;DHT22;10189;49.546;7.906;2022-09-01T13:52:55;23.20;48.90
20057;DHT22;10189;49.546;7.906;2022-09-01T13:55:27;23.20;48.30
20057;DHT22;10189;49.546;7.906;2022-09-01T13:57:55;22.90;48.80
20057;DHT22;10189;49.546;7.906;2022-09-01T14:00:25;22.60;50.30
20057;DHT22;10189;49.546;7.906;2022-09-01T14:02:54;22.60;50.30
20057;DHT22;10189;49.546;7.906;2022-09-01T14:05:25;22.70;50.60
20057;DHT22;10189;49.546;7.906;2022-09-01T14:07:53;23.10;50.70
20057;DHT22;10189;49.546;7.906;2022-09-01T14:10:20;23.20;49.20
20057;DHT22;10189;49.546;7.906;2022-09-01T14:12:49;23.10;49.20
20057;DHT22;10189;49.546;7.906;2022-09-01T14:15:17;23.10;49.50
20057;DHT22;10189;49.546;7.906;2022-09-01T14:17:51;22.90;49.40
20057;DHT22;10189;49.546;7.906;2022-09-01T14:20:21;22.90;49.70
20057;DHT22;10189;49.546;7.906;2022-09-01T14:22:49;22.90;49.30
20057;DHT22;10189;49.546;7.906;2022-09-01T14:25:17;23.30;49.30
20057;DHT22;10189;49.546;7.906;2022-09-01T14:27:45;23.30;48.50
20057;DHT22;10189;49.546;7.906;2022-09-01T14:30:16;23.30;47.60
20057;DHT22;10189;49.546;7.906;2022-09-01T14:32:47;23.40;48.70
20057;DHT22;10189;49.546;7.906;2022-09-01T14:35:16;23.30;47.60
20057;DHT22;10189;49.546;7.906;2022-09-01T14:37:43;23.30;48.20
20057;DHT22;10189;49.546;7.906;2022-09-01T14:40:11;23.30;48.10
20057;DHT22;10189;49.546;7.906;2022-09-01T14:42:41;23.40;47.70
20057;DHT22;10189;49.546;7.906;2022-09-01T14:45:14;23.50;47.80
20057;DHT22;10189;49.546;7.906;2022-09-01T14:47:46;23.60;47.50
20057;DHT22;10189;49.546;7.906;2022-09-01T14:50:15;23.70;47.00
20057;DHT22;10189;49.546;7.906;2022-09-01T14:52:44;24.00;46.80
20057;DHT22;10189;49.546;7.906;2022-09-01T14:55:10;24.00;46.80
20057;DHT22;10189;49.546;7.906;2022-09-01T14:57:36;24.30;46.70
20057;DHT22;10189;49.546;7.906;2022-09-01T15:00:05;24.60;46.20
20057;DHT22;10189;49.546;7.906;2022-09-01T15:02:35;24.70;46.10
20057;DHT22;10189;49.546;7.906;2022-09-01T15:05:03;24.70;46.70
20057;DHT22;10189;49.546;7.906;2022-09-01T15:07:29;24.60;44.80
20057;DHT22;10189;49.546;7.906;2022-09-01T15:09:55;24.30;45.00
20057;DHT22;10189;49.546;7.906;2022-09-01T15:12:23;24.10;46.20
20057;DHT22;10189;49.546;7.906;2022-09-01T15:14:50;23.60;46.80
20057;DHT22;10189;49.546;7.906;2022-09-01T15:17:16;23.40;47.00
20057;DHT22;10189;49.546;7.906;2022-09-01T15:19:41;23.30;47.40
20057;DHT22;10189;49.546;7.906;2022-09-01T15:22:08;23.20;47.50
20057;DHT22;10189;49.546;7.906;2022-09-01T15:24:39;23.10;47.40
20057;DHT22;10189;49.546;7.906;2022-09-01T15:27:05;23.00;47.80
20057;DHT22;10189;49.546;7.906;2022-09-01T15:29:31;23.10;48.20
20057;DHT22;10189;49.546;7.906;2022-09-01T15:31:59;23.20;47.60
20057;DHT22;10189;49.546;7.906;2022-09-01T15:34:28;23.10;47.50
20057;DHT22;10189;49.546;7.906;2022-09-01T15:36:54;23.00;48.20
20057;DHT22;10189;49.546;7.906;2022-09-01T15:39:20;23.00;48.30
20057;DHT22;10189;49.546;7.906;2022-09-01T15:41:46;23.20;48.50
20057;DHT22;10189;49.546;7.906;2022-09-01T15:44:12;23.20;48.30
20057;DHT22;10189;49.546;7.906;2022-09-01T15:46:38;23.20;48.50
20057;DHT22;10189;49.546;7.906;2022-09-01T15:49:07;23.20;48.50
20057;DHT22;10189;49.546;7.906;2022-09-01T15:51:37;23.20;48.20
20057;DHT22;10189;49.546;7.906;2022-09-01T15:54:10;23.20;48.00
20057;DHT22;10189;49.546;7.906;2022-09-01T15:56:41;23.20;47.90
20057;DHT22;10189;49.546;7.906;2022-09-01T15:59:09;23.20;48.30
20057;DHT22;10189;49.546;7.906;2022-09-01T16:01:39;23.10;48.40
20057;DHT22;10189;49.546;7.906;2022-09-01T16:04:10;23.10;48.20
20057;DHT22;10189;49.546;7.906;2022-09-01T16:06:39;23.10;48.20
20057;DHT22;10189;49.546;7.906;2022-09-01T16:09:07;23.10;48.50
20057;DHT22;10189;49.546;7.906;2022-09-01T16:11:34;23.10;48.20
20057;DHT22;10189;49.546;7.906;2022-09-01T16:14:02;22.90;48.20
20057;DHT22;10189;49.546;7.906;2022-09-01T16:19:52;22.80;49.40
20057;DHT22;10189;49.546;7.906;2022-09-01T16:22:32;22.90;49.00
20057;DHT22;10189;49.546;7.906;2022-09-01T16:25:07;22.90;48.60
20057;DHT22;10189;49.546;7.906;2022-09-01T16:27:41;22.70;49.20
20057;DHT22;10189;49.546;7.906;2022-09-01T16:30:11;22.70;49.30
20057;DHT22;10189;49.546;7.906;2022-09-01T16:32:44;22.80;48.70
20057;DHT22;10189;49.546;7.906;2022-09-01T16:35:12;22.90;48.90
20057;DHT22;10189;49.546;7.906;2022-09-01T16:41:11;23.20;48.40
20057;DHT22;10189;49.546;7.906;2022-09-01T16:47:23;23.90;46.10
20057;DHT22;10189;49.546;7.906;2022-09-01T17:01:51;23.80;45.80
20057;DHT22;10189;49.546;7.906;2022-09-01T17:04:48;23.40;46.50
20057;DHT22;10189;49.546;7.906;2022-09-01T17:10:17;22.70;47.90
20057;DHT22;10189;49.546;7.906;2022-09-01T17:12:54;22.60;48.90
20057;DHT22;10189;49.546;7.906;2022-09-01T17:15:33;22.50;48.30
20057;DHT22;10189;49.546;7.906;2022-09-01T17:21:01;22.10;49.60
20057;DHT22;10189;49.546;7.906;2022-09-01T17:23:40;22.00;49.80
20057;DHT22;10189;49.546;7.906;2022-09-01T17:26:20;21.90;50.70
20057;DHT22;10189;49.546;7.906;2022-09-01T17:28:58;21.80;50.10
20057;DHT22;10189;49.546;7.906;2022-09-01T17:31:45;21.70;50.80
20057;DHT22;10189;49.546;7.906;2022-09-01T17:34:52;21.60;51.30
20057;DHT22;10189;49.546;7.906;2022-09-01T17:41:37;21.20;52.00
20057;DHT22;10189;49.546;7.906;2022-09-01T17:47:37;21.00;52.50
20057;DHT22;10189;49.546;7.906;2022-09-01T17:50:32;20.90;52.90
20057;DHT22;10189;49.546;7.906;2022-09-01T18:05:46;20.30;54.30
20057;DHT22;10189;49.546;7.906;2022-09-01T18:08:41;20.10;54.40
20057;DHT22;10189;49.546;7.906;2022-09-01T18:11:25;20.00;54.70
20057;DHT22;10189;49.546;7.906;2022-09-01T18:14:13;19.90;54.90
20057;DHT22;10189;49.546;7.906;2022-09-01T18:17:22;19.80;55.40
20057;DHT22;10189;49.546;7.906;2022-09-01T18:23:07;19.50;56.10
20057;DHT22;10189;49.546;7.906;2022-09-01T18:28:55;19.30;58.50
20057;DHT22;10189;49.546;7.906;2022-09-01T18:34:27;19.00;59.30
20057;DHT22;10189;49.546;7.906;2022-09-01T18:37:14;18.80;59.80
20057;DHT22;10189;49.546;7.906;2022-09-01T18:43:25;18.50;60.90
20057;DHT22;10189;49.546;7.906;2022-09-01T18:49:42;18.30;61.40
20057;DHT22;10189;49.546;7.906;2022-09-01T18:57:34;18.10;62.40
20057;DHT22;10189;49.546;7.906;2022-09-01T19:00:15;18.10;62.30